createdAt,value
2017-12-28T00:02:21.420Z,29.27
2017-12-28T00:04:48.914Z,24.50
2017-12-28T00:07:16.632Z,22.43
2017-12-28T00:09:44.093Z,22.33
2017-12-28T00:12:11.546Z,20.53
2017-12-28T00:14:39.335Z,16.97
2017-12-28T00:17:06.786Z,18.57
2017-12-28T00:19:34.248Z,27.97
2017-12-28T00:22:02.021Z,18.43
2017-12-28T00:24:29.472Z,19.10
2017-12-28T00:26:56.924Z,21.87
2017-12-28T00:29:24.687Z,40.27
2017-12-28T00:31:52.148Z,31.07
2017-12-28T00:34:19.608Z,26.20
2017-12-28T00:36:47.386Z,18.97
2017-12-28T00:39:14.844Z,24.70
2017-12-28T00:41:42.301Z,24.23
2017-12-28T00:44:10.085Z,13.80
2017-12-28T00:46:37.545Z,21.67
2017-12-28T00:49:05.006Z,21.80
2017-12-28T00:51:33.374Z,23.17
2017-12-28T00:54:00.833Z,20.57
2017-12-28T00:56:28.284Z,20.17
2017-12-28T00:58:56.382Z,25.30
2017-12-28T01:01:23.836Z,23.53
2017-12-28T01:03:51.291Z,19.70
2017-12-28T01:06:19.061Z,21.67
2017-12-28T01:08:46.522Z,20.93
2017-12-28T01:11:13.985Z,23.27
2017-12-28T01:13:41.755Z,24.00
2017-12-28T01:16:09.211Z,22.50
2017-12-28T01:18:36.677Z,26.03
2017-12-28T01:21:04.447Z,35.47
2017-12-28T01:23:31.908Z,26.60
2017-12-28T01:25:59.365Z,29.57
2017-12-28T01:28:27.129Z,24.73
2017-12-28T01:30:54.596Z,29.40
2017-12-28T01:33:22.066Z,24.10
2017-12-28T01:35:50.121Z,26.57
2017-12-28T01:38:17.580Z,32.27
2017-12-28T01:40:45.040Z,37.27
2017-12-28T01:43:13.115Z,28.40
2017-12-28T01:45:40.568Z,35.00
2017-12-28T01:48:08.031Z,25.60
2017-12-28T01:50:35.812Z,31.83
2017-12-28T01:53:03.641Z,29.33
2017-12-28T01:55:31.106Z,47.23
2017-12-28T01:57:59.089Z,36.27
2017-12-28T02:07:10.241Z,30.70
2017-12-28T02:09:37.697Z,33.10
2017-12-28T02:12:05.156Z,40.90
2017-12-28T02:14:32.913Z,30.63
2017-12-28T02:17:00.360Z,31.80
2017-12-28T02:19:27.817Z,31.03
2017-12-28T02:21:55.912Z,36.97
2017-12-28T02:24:23.372Z,26.83
2017-12-28T02:26:50.837Z,26.10
2017-12-28T02:29:18.599Z,30.33
2017-12-28T02:31:46.058Z,19.00
2017-12-28T02:34:13.513Z,15.10
2017-12-28T02:36:41.446Z,11.77
2017-12-28T02:39:08.894Z,11.53
2017-12-28T02:41:36.343Z,11.17
2017-12-28T02:44:04.365Z,9.37
2017-12-28T02:46:31.820Z,11.40
2017-12-28T02:48:59.276Z,11.40
2017-12-28T02:51:27.505Z,12.77
2017-12-28T02:53:55.733Z,12.43
2017-12-28T02:56:23.188Z,11.03
2017-12-28T02:58:50.880Z,12.23
2017-12-28T03:01:18.332Z,12.57
2017-12-28T03:03:45.784Z,13.57
2017-12-28T03:06:13.412Z,11.07
2017-12-28T03:08:40.904Z,12.73
2017-12-28T03:11:08.363Z,12.13
2017-12-28T03:13:36.258Z,9.70
2017-12-28T03:16:03.715Z,10.67
2017-12-28T03:18:31.166Z,10.43
2017-12-28T03:20:59.241Z,11.33
2017-12-28T03:23:26.688Z,7.50
2017-12-28T03:25:54.124Z,6.67
2017-12-28T03:28:21.962Z,8.37
2017-12-28T03:30:49.408Z,7.53
2017-12-28T03:33:16.858Z,7.10
2017-12-28T03:35:44.621Z,5.80
2017-12-28T03:38:12.076Z,5.73
2017-12-28T03:40:39.520Z,7.17
2017-12-28T03:43:07.303Z,4.97
2017-12-28T03:45:34.754Z,4.10
2017-12-28T03:48:02.201Z,13.60
2017-12-28T03:50:30.332Z,2.97
2017-12-28T03:52:57.776Z,3.60
2017-12-28T03:55:25.920Z,2.47
2017-12-28T03:57:53.604Z,2.83
2017-12-28T04:00:21.052Z,1.70
2017-12-28T04:02:48.502Z,1.90
2017-12-28T04:05:16.300Z,2.07
2017-12-28T04:07:43.747Z,1.60
2017-12-28T04:10:11.196Z,1.63
2017-12-28T04:12:38.976Z,1.33
2017-12-28T04:15:06.423Z,1.23
2017-12-28T04:17:33.881Z,0.83
2017-12-28T04:20:01.589Z,1.00
2017-12-28T04:22:29.040Z,1.10
2017-12-28T04:24:56.487Z,0.70
2017-12-28T04:27:24.608Z,0.90
2017-12-28T04:29:52.055Z,0.67
2017-12-28T04:32:19.500Z,0.50
2017-12-28T04:34:47.302Z,0.70
2017-12-28T04:37:14.753Z,1.17
2017-12-28T04:39:42.209Z,0.70
2017-12-28T04:42:10.035Z,0.60
2017-12-28T04:44:37.492Z,0.50
2017-12-28T04:47:04.941Z,0.57
2017-12-28T04:49:32.722Z,0.40
2017-12-28T04:52:00.171Z,0.60
2017-12-28T04:54:27.633Z,0.60
2017-12-28T04:56:55.964Z,0.73
2017-12-28T04:59:23.404Z,0.80
2017-12-28T05:01:50.852Z,0.80
2017-12-28T05:04:18.884Z,0.80
2017-12-28T05:06:46.319Z,0.73
2017-12-28T05:09:13.770Z,0.80
2017-12-28T05:11:41.712Z,0.80
2017-12-28T05:14:09.158Z,0.73
2017-12-28T05:16:36.604Z,1.20
2017-12-28T05:19:04.392Z,1.07
2017-12-28T05:21:31.840Z,1.20
2017-12-28T05:23:59.287Z,1.37
2017-12-28T05:26:27.086Z,1.33
2017-12-28T05:28:54.537Z,1.47
2017-12-28T05:31:21.987Z,1.73
2017-12-28T05:33:50.076Z,1.97
2017-12-28T05:36:17.521Z,1.63
2017-12-28T05:38:44.979Z,2.23
2017-12-28T05:41:12.756Z,1.50
2017-12-28T05:43:40.198Z,1.20
2017-12-28T05:46:07.644Z,1.50
2017-12-28T05:48:35.437Z,1.30
2017-12-28T05:51:02.885Z,0.97
2017-12-28T05:53:30.323Z,1.63
2017-12-28T05:55:58.436Z,1.77
2017-12-28T05:58:26.583Z,1.90
2017-12-28T06:00:54.037Z,2.27
2017-12-28T06:03:21.802Z,2.03
2017-12-28T06:05:49.262Z,6.83
2017-12-28T06:08:16.709Z,2.10
2017-12-28T06:10:44.426Z,2.50
2017-12-28T06:13:11.873Z,3.60
2017-12-28T06:15:39.320Z,4.70
2017-12-28T06:18:07.115Z,2.00
2017-12-28T06:20:34.561Z,2.20
2017-12-28T06:23:02.017Z,2.10
2017-12-28T06:25:30.104Z,2.33
2017-12-28T06:27:57.560Z,2.70
2017-12-28T06:30:25.010Z,4.30
2017-12-28T06:32:53.153Z,2.60
2017-12-28T06:35:20.595Z,3.47
2017-12-28T06:37:48.045Z,3.77
2017-12-28T06:40:15.795Z,3.03
2017-12-28T06:42:43.243Z,5.03
2017-12-28T06:45:10.689Z,3.83
2017-12-28T06:47:38.471Z,4.47
2017-12-28T06:50:05.923Z,4.27
2017-12-28T06:52:33.378Z,5.20
2017-12-28T06:55:01.161Z,4.80
2017-12-28T06:57:28.628Z,5.77
2017-12-28T06:59:59.373Z,4.40
2017-12-28T07:02:27.070Z,4.90
2017-12-28T07:04:54.517Z,8.87
2017-12-28T07:07:21.965Z,6.40
2017-12-28T07:09:49.916Z,6.60
2017-12-28T07:12:17.360Z,7.80
2017-12-28T07:14:44.800Z,8.27
2017-12-28T07:17:12.602Z,8.27
2017-12-28T07:19:40.049Z,7.43
2017-12-28T07:22:07.500Z,9.17
2017-12-28T07:24:35.608Z,9.40
2017-12-28T07:27:03.941Z,9.83
2017-12-28T07:29:31.394Z,9.70
2017-12-28T07:31:58.962Z,8.73
2017-12-28T07:34:26.404Z,9.87
2017-12-28T07:36:53.850Z,9.83
2017-12-28T07:39:21.588Z,10.00
2017-12-28T07:41:49.040Z,9.10
2017-12-28T07:44:16.489Z,9.53
2017-12-28T07:46:44.272Z,8.37
2017-12-28T07:49:11.720Z,8.60
2017-12-28T07:51:39.172Z,6.13
2017-12-28T07:54:06.962Z,7.60
2017-12-28T07:56:34.419Z,6.53
2017-12-28T07:59:01.865Z,6.37
2017-12-28T08:01:30.125Z,6.80
2017-12-28T08:03:57.574Z,6.50
2017-12-28T08:06:25.019Z,6.90
2017-12-28T08:08:52.657Z,7.90
2017-12-28T08:11:20.097Z,5.80
2017-12-28T08:13:47.544Z,5.13
2017-12-28T08:16:15.324Z,8.17
2017-12-28T08:18:42.764Z,5.83
2017-12-28T08:21:10.210Z,7.07
2017-12-28T08:23:37.941Z,7.83
2017-12-28T08:26:05.389Z,7.50
2017-12-28T08:28:32.836Z,9.93
2017-12-28T08:31:00.710Z,8.40
2017-12-28T08:33:28.153Z,8.07
2017-12-28T08:35:55.604Z,6.90
2017-12-28T08:38:23.386Z,7.17
2017-12-28T08:40:50.829Z,5.50
2017-12-28T08:43:18.277Z,4.90
2017-12-28T08:45:46.149Z,4.43
2017-12-28T08:48:13.595Z,4.43
2017-12-28T08:50:41.317Z,4.30
2017-12-28T08:53:09.069Z,3.30
2017-12-28T08:55:36.512Z,3.30
2017-12-28T08:58:03.956Z,2.80
2017-12-28T09:00:31.752Z,3.37
2017-12-28T09:02:59.893Z,4.00
2017-12-28T09:05:27.340Z,4.23
2017-12-28T09:07:55.073Z,3.63
2017-12-28T09:10:22.555Z,3.60
2017-12-28T09:12:50.007Z,4.00
2017-12-28T09:15:18.060Z,3.90
2017-12-28T09:17:45.520Z,4.40
2017-12-28T09:20:12.968Z,2.80
2017-12-28T09:22:40.740Z,2.53
2017-12-28T09:25:08.180Z,3.50
2017-12-28T09:27:35.624Z,3.53
2017-12-28T09:30:03.428Z,2.27
2017-12-28T09:32:30.873Z,3.03
2017-12-28T09:34:58.321Z,2.93
2017-12-28T09:37:26.127Z,1.77
2017-12-28T09:39:53.586Z,1.90
2017-12-28T09:42:21.061Z,2.67
2017-12-28T09:44:48.804Z,2.90
2017-12-28T09:47:16.245Z,1.90
2017-12-28T09:49:43.698Z,2.03
2017-12-28T09:52:11.804Z,2.00
2017-12-28T09:54:39.253Z,2.90
2017-12-28T09:57:06.705Z,2.37
2017-12-28T09:59:34.795Z,2.07
2017-12-28T10:02:02.241Z,1.90
2017-12-28T10:04:30.091Z,2.30
2017-12-28T10:06:58.017Z,1.50
2017-12-28T10:09:25.498Z,2.00
2017-12-28T10:11:52.942Z,1.67
2017-12-28T10:14:21.484Z,1.73
2017-12-28T10:16:48.934Z,1.87
2017-12-28T10:19:16.391Z,3.47
2017-12-28T10:21:44.232Z,1.70
2017-12-28T10:24:11.687Z,3.33
2017-12-28T10:26:39.155Z,22.93
2017-12-28T10:29:06.828Z,16.90
2017-12-28T10:31:34.272Z,3.53
2017-12-28T10:34:02.064Z,2.07
2017-12-28T10:36:29.985Z,1.50
2017-12-28T10:38:57.434Z,2.13
2017-12-28T10:41:24.879Z,1.67
2017-12-28T10:43:52.769Z,5.30
2017-12-28T10:46:20.226Z,1.87
2017-12-28T10:48:47.668Z,2.60
2017-12-28T10:51:15.753Z,2.17
2017-12-28T10:53:43.204Z,1.27
2017-12-28T10:56:10.668Z,1.77
2017-12-28T10:58:38.434Z,2.73
2017-12-28T11:01:05.879Z,2.00
2017-12-28T11:03:33.333Z,1.80
2017-12-28T11:06:01.741Z,1.10
2017-12-28T11:08:29.191Z,1.53
2017-12-28T11:10:56.720Z,1.00
2017-12-28T11:13:25.030Z,1.60
2017-12-28T11:15:52.476Z,1.23
2017-12-28T11:18:19.944Z,1.03
2017-12-28T11:20:47.733Z,1.23
2017-12-28T11:23:15.192Z,1.53
2017-12-28T11:25:42.643Z,2.60
2017-12-28T11:28:10.408Z,1.10
2017-12-28T11:30:37.872Z,1.00
2017-12-28T11:33:05.705Z,1.20
2017-12-28T11:35:33.423Z,3.03
2017-12-28T11:38:00.864Z,0.90
2017-12-28T11:40:28.313Z,1.40
2017-12-28T11:42:56.105Z,1.00
2017-12-28T11:45:23.553Z,2.60
2017-12-28T11:47:54.968Z,1.70
2017-12-28T11:50:23.695Z,0.80
2017-12-28T11:52:56.773Z,1.23
2017-12-28T11:55:24.211Z,0.90
2017-12-28T11:57:56.840Z,1.17
2017-12-28T12:00:27.232Z,0.80
2017-12-28T12:03:09.880Z,1.00
2017-12-28T12:05:42.916Z,2.40
2017-12-28T12:08:11.247Z,1.03
2017-12-28T12:10:44.228Z,1.00
2017-12-28T12:13:11.994Z,1.10
2017-12-28T12:15:39.445Z,1.50
2017-12-28T12:18:06.884Z,5.93
2017-12-28T12:20:34.686Z,1.27
2017-12-28T12:23:02.131Z,1.20
2017-12-28T12:25:29.573Z,1.50
2017-12-28T12:27:57.196Z,1.33
2017-12-28T12:30:24.642Z,0.80
2017-12-28T12:32:52.089Z,2.53
2017-12-28T12:35:20.064Z,1.77
2017-12-28T12:37:47.505Z,1.20
2017-12-28T12:40:14.949Z,0.80
2017-12-28T12:42:42.743Z,1.00
2017-12-28T12:45:10.182Z,1.87
2017-12-28T12:47:37.624Z,3.80
2017-12-28T12:50:05.366Z,0.77
2017-12-28T12:52:32.808Z,0.77
2017-12-28T12:55:00.260Z,2.90
2017-12-28T12:57:27.972Z,1.40
2017-12-28T12:59:55.423Z,1.10
2017-12-28T13:02:22.861Z,0.90
2017-12-28T13:04:51.051Z,1.00
2017-12-28T13:07:18.496Z,1.60
2017-12-28T13:09:46.291Z,1.13
2017-12-28T13:12:13.988Z,1.17
2017-12-28T13:14:41.441Z,1.00
2017-12-28T13:17:08.923Z,1.17
2017-12-28T13:19:36.800Z,2.20
2017-12-28T13:22:04.243Z,1.17
2017-12-28T13:24:31.692Z,3.93
2017-12-28T13:26:59.492Z,1.37
2017-12-28T13:29:26.940Z,0.80
2017-12-28T13:31:54.381Z,0.90
2017-12-28T13:34:22.254Z,1.33
2017-12-28T13:36:49.701Z,1.43
2017-12-28T13:39:17.145Z,0.90
2017-12-28T13:41:45.166Z,0.90
2017-12-28T13:44:12.625Z,1.10
2017-12-28T13:46:40.099Z,1.30
2017-12-28T13:49:07.848Z,1.60
2017-12-28T13:51:35.296Z,1.77
2017-12-28T13:54:02.756Z,2.30
2017-12-28T13:56:30.844Z,1.43
2017-12-28T13:58:58.294Z,1.63
2017-12-28T14:01:25.765Z,1.00
2017-12-28T14:03:53.490Z,1.07
2017-12-28T14:06:20.940Z,1.60
2017-12-28T14:08:48.412Z,2.23
2017-12-28T14:11:16.842Z,2.00
2017-12-28T14:13:44.292Z,2.80
2017-12-28T14:16:11.738Z,2.53
2017-12-28T14:18:39.524Z,1.80
2017-12-28T14:21:06.968Z,1.70
2017-12-28T14:23:34.410Z,4.37
2017-12-28T14:26:02.209Z,2.23
2017-12-28T14:28:29.652Z,1.80
2017-12-28T14:30:57.092Z,2.00
2017-12-28T14:33:24.902Z,1.97
2017-12-28T14:35:52.344Z,2.80
2017-12-28T14:38:19.798Z,3.00
2017-12-28T14:40:47.585Z,2.27
2017-12-28T14:43:15.036Z,2.20
2017-12-28T14:45:42.846Z,6.60
2017-12-28T14:48:10.466Z,2.63
2017-12-28T14:50:37.913Z,2.07
2017-12-28T14:53:05.353Z,3.07
2017-12-28T14:55:33.271Z,2.23
2017-12-28T14:58:00.717Z,2.23
2017-12-28T15:00:28.154Z,2.00
2017-12-28T15:02:55.949Z,2.10
2017-12-28T15:05:23.388Z,2.60
2017-12-28T15:07:50.838Z,2.40
2017-12-28T15:10:18.667Z,2.70
2017-12-28T15:12:47.649Z,2.50
2017-12-28T15:15:15.096Z,2.80
2017-12-28T15:17:42.812Z,2.80
2017-12-28T15:20:10.265Z,3.23
2017-12-28T15:22:37.729Z,3.90
2017-12-28T15:25:05.560Z,2.90
2017-12-28T15:27:33.008Z,2.97
2017-12-28T15:30:00.456Z,4.07
2017-12-28T15:32:28.199Z,4.27
2017-12-28T15:34:55.657Z,4.97
2017-12-28T15:37:23.109Z,4.23
2017-12-28T15:39:50.925Z,7.10
2017-12-28T15:42:18.369Z,4.77
2017-12-28T15:44:45.828Z,4.57
2017-12-28T15:47:13.569Z,5.07
2017-12-28T15:49:41.021Z,8.00
2017-12-28T15:52:08.464Z,6.43
2017-12-28T15:54:36.297Z,5.90
2017-12-28T15:57:03.748Z,5.80
2017-12-28T15:59:31.194Z,4.47
2017-12-28T16:01:58.991Z,6.40
2017-12-28T16:04:26.438Z,6.43
2017-12-28T16:06:53.886Z,7.07
2017-12-28T16:09:21.668Z,5.53
2017-12-28T16:11:49.128Z,5.20
2017-12-28T16:14:19.116Z,5.03
2017-12-28T16:16:46.818Z,6.03
2017-12-28T16:19:14.256Z,7.93
2017-12-28T16:21:41.702Z,4.20
2017-12-28T16:24:09.497Z,6.43
2017-12-28T16:26:36.952Z,5.77
2017-12-28T16:29:04.408Z,6.60
2017-12-28T16:31:32.453Z,6.47
2017-12-28T16:33:59.905Z,5.87
2017-12-28T16:36:27.352Z,6.13
2017-12-28T16:38:55.196Z,5.17
2017-12-28T16:41:22.972Z,7.30
2017-12-28T16:43:50.774Z,5.80
2017-12-28T16:46:18.576Z,6.50
2017-12-28T16:48:46.050Z,6.40
2017-12-28T16:51:13.512Z,7.97
2017-12-28T16:53:41.232Z,6.07
2017-12-28T16:56:08.685Z,5.83
2017-12-28T16:58:36.124Z,10.37
2017-12-28T17:01:03.867Z,6.40
2017-12-28T17:03:31.312Z,7.80
2017-12-28T17:05:58.761Z,6.67
2017-12-28T17:08:26.468Z,6.93
2017-12-28T17:10:53.914Z,6.30
2017-12-28T17:13:21.377Z,7.77
2017-12-28T17:15:49.242Z,10.33
2017-12-28T17:18:16.704Z,9.03
2017-12-28T17:20:44.160Z,6.83
2017-12-28T17:23:11.933Z,11.13
2017-12-28T17:25:39.391Z,14.50
2017-12-28T17:28:06.852Z,11.13
2017-12-28T17:30:34.429Z,9.20
2017-12-28T17:33:01.878Z,9.30
2017-12-28T17:35:29.330Z,10.13
2017-12-28T17:37:57.300Z,13.50
2017-12-28T17:40:24.763Z,10.80
2017-12-28T17:42:52.225Z,9.30
2017-12-28T17:45:20.285Z,45.87
2017-12-28T17:47:47.733Z,11.50
2017-12-28T17:50:15.184Z,11.00
2017-12-28T17:52:42.989Z,12.60
2017-12-28T17:55:10.446Z,15.67
2017-12-28T17:57:37.910Z,13.00
2017-12-28T18:00:05.659Z,15.50
2017-12-28T18:02:33.205Z,16.60
2017-12-28T18:05:00.660Z,19.53
2017-12-28T18:07:28.653Z,16.70
2017-12-28T18:09:56.113Z,20.20
2017-12-28T18:12:23.577Z,18.60
2017-12-28T18:14:51.345Z,20.30
2017-12-28T18:17:19.810Z,24.40
2017-12-28T18:19:47.268Z,19.07
2017-12-28T18:22:15.052Z,25.30
2017-12-28T18:24:42.509Z,26.33
2017-12-28T18:27:09.970Z,20.83
2017-12-28T18:29:37.954Z,26.57
2017-12-28T18:32:05.416Z,26.00
2017-12-28T18:34:32.889Z,36.07
2017-12-28T18:37:00.629Z,19.50
2017-12-28T18:39:28.107Z,20.97
2017-12-28T18:41:55.577Z,21.00
2017-12-28T18:44:23.652Z,37.30
2017-12-28T18:46:51.100Z,31.23
2017-12-28T18:49:18.566Z,30.30
2017-12-28T18:51:46.636Z,24.10
2017-12-28T18:54:14.097Z,29.70
2017-12-28T18:56:41.558Z,27.07
2017-12-28T18:59:09.358Z,29.93
2017-12-28T19:01:36.821Z,32.30
2017-12-28T19:04:04.287Z,34.87
2017-12-28T19:06:32.314Z,38.70
2017-12-28T19:08:59.773Z,45.73
2017-12-28T19:11:27.229Z,38.30
2017-12-28T19:13:54.984Z,38.20
2017-12-28T19:16:22.452Z,36.20
2017-12-28T19:18:50.621Z,36.30
2017-12-28T19:21:18.905Z,35.60
2017-12-28T19:23:46.372Z,32.13
2017-12-28T19:26:13.833Z,35.63
2017-12-28T19:28:41.592Z,31.00
2017-12-28T19:31:09.046Z,33.03
2017-12-28T19:33:36.505Z,42.53
2017-12-28T19:36:04.586Z,28.60
2017-12-28T19:38:32.041Z,30.90
2017-12-28T19:40:59.498Z,28.87
2017-12-28T19:43:27.269Z,24.17
2017-12-28T19:45:54.725Z,21.57
2017-12-28T19:48:22.185Z,24.57
2017-12-28T19:50:50.269Z,28.23
2017-12-28T19:53:17.734Z,17.70
2017-12-28T19:55:45.202Z,15.50
2017-12-28T19:58:12.961Z,18.10
2017-12-28T20:00:40.420Z,21.17
2017-12-28T20:03:07.897Z,19.67
2017-12-28T20:05:35.964Z,20.73
2017-12-28T20:08:03.421Z,20.60
2017-12-28T20:10:30.881Z,26.80
2017-12-28T20:12:58.612Z,21.10
2017-12-28T20:15:26.062Z,23.00
2017-12-28T20:17:53.513Z,18.33
2017-12-28T20:20:22.250Z,22.47
2017-12-28T20:22:49.714Z,22.53
2017-12-28T20:25:17.169Z,31.17
2017-12-28T20:27:44.879Z,34.77
2017-12-28T20:30:12.334Z,27.30
2017-12-28T20:32:39.800Z,27.17
2017-12-28T20:35:07.646Z,25.77
2017-12-28T20:37:35.117Z,32.97
2017-12-28T20:40:02.590Z,23.10
2017-12-28T20:42:30.627Z,30.67
2017-12-28T20:44:58.083Z,29.00
2017-12-28T20:47:25.537Z,25.73
2017-12-28T20:49:53.302Z,31.33
2017-12-28T20:52:20.769Z,26.47
2017-12-28T20:54:48.233Z,28.00
2017-12-28T20:57:15.989Z,27.60
2017-12-28T20:59:43.461Z,25.40
2017-12-28T21:02:10.939Z,27.73
2017-12-28T21:04:38.996Z,25.73
2017-12-28T21:07:06.479Z,27.13
2017-12-28T21:09:33.940Z,21.93
2017-12-28T21:12:02.167Z,20.40
2017-12-28T21:14:29.621Z,13.93
2017-12-28T21:16:57.087Z,19.07
2017-12-28T21:19:24.977Z,32.47
2017-12-28T21:21:53.888Z,21.87
2017-12-28T21:24:21.336Z,23.17
2017-12-28T21:26:49.202Z,27.83
2017-12-28T21:29:16.648Z,29.10
2017-12-28T21:31:44.105Z,24.50
2017-12-28T21:34:11.888Z,33.80
2017-12-28T21:36:39.353Z,30.27
2017-12-28T21:39:06.820Z,27.50
2017-12-28T21:41:38.564Z,26.97
2017-12-28T21:44:06.027Z,24.80
2017-12-28T21:46:33.482Z,32.13
2017-12-28T21:49:01.258Z,32.63
2017-12-28T21:51:28.716Z,28.63
2017-12-28T21:53:56.511Z,28.33
2017-12-28T21:56:24.430Z,30.97
2017-12-28T21:58:51.886Z,28.00
2017-12-28T22:01:19.344Z,23.83
2017-12-28T22:03:48.477Z,28.47
2017-12-28T22:06:15.970Z,28.37
2017-12-28T22:08:43.445Z,33.10
2017-12-28T22:11:11.309Z,40.40
2017-12-28T22:13:38.779Z,37.23
2017-12-28T22:16:06.241Z,35.83
2017-12-28T22:18:34.153Z,25.80
2017-12-28T22:21:01.627Z,35.03
2017-12-28T22:23:29.772Z,25.23
2017-12-28T22:25:58.369Z,28.77
2017-12-28T22:28:25.830Z,28.07
2017-12-28T22:30:53.294Z,23.40
2017-12-28T22:33:21.052Z,25.00
2017-12-28T22:35:48.510Z,33.80
2017-12-28T22:38:15.977Z,22.43
2017-12-28T22:40:43.745Z,19.77
2017-12-28T22:43:11.231Z,20.43
2017-12-28T22:45:38.693Z,18.20
2017-12-28T22:48:06.428Z,49.17
2017-12-28T22:50:33.901Z,17.80
2017-12-28T22:53:01.355Z,11.80
2017-12-28T22:55:29.112Z,16.97
2017-12-28T22:57:56.560Z,12.23
2017-12-28T23:00:24.019Z,18.50
2017-12-28T23:02:52.113Z,18.10
2017-12-28T23:05:19.570Z,14.53
2017-12-28T23:07:47.024Z,14.70
2017-12-28T23:10:14.796Z,14.47
2017-12-28T23:12:42.251Z,11.30
2017-12-28T23:15:09.708Z,11.20
2017-12-28T23:17:37.498Z,13.10
2017-12-28T23:20:04.967Z,13.10
2017-12-28T23:22:32.422Z,13.27
2017-12-28T23:25:00.747Z,9.90
2017-12-28T23:27:28.204Z,15.87
2017-12-28T23:29:55.651Z,19.93
2017-12-28T23:32:23.478Z,14.90
2017-12-28T23:34:50.933Z,14.57
2017-12-28T23:37:18.384Z,12.73
2017-12-28T23:39:46.783Z,15.90
2017-12-28T23:42:14.243Z,11.50
2017-12-28T23:44:41.701Z,8.97
2017-12-28T23:47:09.769Z,18.50
2017-12-28T23:49:37.283Z,23.23
2017-12-28T23:52:04.731Z,9.77
2017-12-28T23:54:32.761Z,10.37
2017-12-28T23:57:00.214Z,12.90
2017-12-28T23:59:27.660Z,11.80
